Time;durP1;ratioP1;P1;durP2;ratioP2;P2;SDS_P1;SDS_P2;PMS_P1;PMS_P2;Temp;Humidity;BMP_temperature;BMP_pressure;BME280_temperature;BME280_humidity;BME280_pressure;Samples;Min_cycle;Max_cycle;Signal;HPM_P1;HPM_P2
2023/03/22 00:00:42;;;;;;;40.80;27.40;;;;;;;0.93;84.71;100535.80;103711;280;38361;-71
2023/03/22 00:03:26;;;;;;;42.60;27.30;;;;;;;0.90;84.66;100534.92;103685;268;39832;-71
2023/03/22 00:06:04;;;;;;;43.40;27.00;;;;;;;0.85;84.68;100532.16;103701;280;39415;-71
2023/03/22 00:08:37;;;;;;;40.50;25.80;;;;;;;0.83;84.87;100529.05;103654;280;39555;-71
2023/03/22 00:11:13;;;;;;;42.90;26.80;;;;;;;0.81;85.02;100522.86;103694;280;38411;-72
2023/03/22 00:13:46;;;;;;;42.30;26.60;;;;;;;0.81;84.91;100520.80;103698;280;38532;-71
2023/03/22 00:16:21;;;;;;;42.00;27.20;;;;;;;0.79;85.04;100519.59;103697;280;38217;-72
2023/03/22 00:18:56;;;;;;;43.90;28.30;;;;;;;0.78;85.08;100518.39;103649;280;38932;-73
2023/03/22 00:21:30;;;;;;;41.30;26.20;;;;;;;0.74;84.91;100515.11;103729;280;39308;-69
2023/03/22 00:24:06;;;;;;;35.90;24.40;;;;;;;0.69;85.01;100510.96;103737;268;38292;-70
2023/03/22 00:26:40;;;;;;;37.80;24.50;;;;;;;0.68;85.04;100508.56;103672;280;38289;-71
2023/03/22 00:29:14;;;;;;;40.70;25.40;;;;;;;0.66;84.96;100510.59;103697;280;38217;-71
2023/03/22 00:31:50;;;;;;;37.20;25.20;;;;;;;0.62;84.74;100510.25;103709;268;39485;-71
2023/03/22 00:34:25;;;;;;;37.50;25.80;;;;;;;0.59;85.09;100507.83;103589;280;39374;-73
2023/03/22 00:36:59;;;;;;;39.50;26.10;;;;;;;0.57;85.11;100509.89;103657;280;38506;-71
2023/03/22 00:39:33;;;;;;;38.60;25.90;;;;;;;0.56;85.16;100507.64;103695;280;39159;-74
2023/03/22 00:42:08;;;;;;;36.40;23.70;;;;;;;0.55;85.20;100507.80;103551;280;39682;-73
2023/03/22 00:44:42;;;;;;;36.90;25.10;;;;;;;0.52;85.20;100507.63;103705;280;38771;-71
2023/03/22 00:47:16;;;;;;;37.50;25.90;;;;;;;0.50;85.08;100506.08;103681;280;39815;-71
2023/03/22 00:49:50;;;;;;;36.00;25.70;;;;;;;0.47;85.17;100504.33;103729;280;38224;-73
2023/03/22 00:52:25;;;;;;;39.00;25.80;;;;;;;0.44;85.25;100503.98;103677;280;39501;-73
2023/03/22 00:54:59;;;;;;;39.10;26.60;;;;;;;0.42;85.29;100502.42;103720;280;38466;-69
2023/03/22 00:57:34;;;;;;;43.30;27.20;;;;;;;0.41;85.31;100494.35;103678;280;38371;-72
2023/03/22 01:00:14;;;;;;;42.70;27.30;;;;;;;0.41;85.40;100487.66;103728;280;38247;-73
2023/03/22 01:02:52;;;;;;;41.30;27.30;;;;;;;0.41;85.51;100487.66;103685;280;39064;-73
2023/03/22 01:05:27;;;;;;;46.00;28.30;;;;;;;0.42;85.69;100484.05;103706;280;38829;-69
2023/03/22 01:08:05;;;;;;;42.10;26.20;;;;;;;0.42;85.81;100481.15;103696;280;38930;-70
2023/03/22 01:10:40;;;;;;;37.50;24.60;;;;;;;0.40;85.85;100479.42;103668;280;38499;-73
2023/03/22 01:13:14;;;;;;;38.40;25.00;;;;;;;0.40;85.99;100478.22;103666;280;38590;-73
2023/03/22 01:15:51;;;;;;;37.10;25.00;;;;;;;0.41;85.98;100480.63;103653;280;39390;-73
2023/03/22 01:18:25;;;;;;;37.60;25.40;;;;;;;0.42;86.14;100480.45;103629;280;38268;-71
2023/03/22 01:21:00;;;;;;;39.90;25.70;;;;;;;0.44;86.37;100482.36;103519;280;38355;-69
2023/03/22 01:23:34;;;;;;;38.00;24.50;;;;;;;0.45;86.51;100478.24;103677;280;39610;-69
2023/03/22 01:26:08;;;;;;;34.20;23.10;;;;;;;0.46;86.65;100478.94;103697;280;39468;-72
2023/03/22 01:28:42;;;;;;;34.40;21.60;;;;;;;0.47;86.68;100480.14;103671;280;38272;-72
2023/03/22 01:31:16;;;;;;;33.80;22.30;;;;;;;0.48;86.56;100478.44;103710;280;38265;-73
2023/03/22 01:33:51;;;;;;;35.20;22.60;;;;;;;0.52;86.65;100476.90;103666;280;38422;-71
2023/03/22 01:36:27;;;;;;;36.10;23.20;;;;;;;0.52;86.49;100474.66;103701;280;39901;-71
2023/03/22 01:39:02;;;;;;;35.40;24.30;;;;;;;0.51;86.46;100474.15;103724;280;38368;-72
2023/03/22 01:41:36;;;;;;;35.30;22.80;;;;;;;0.50;86.51;100472.27;103682;280;40123;-72
2023/03/22 01:44:16;;;;;;;36.10;24.20;;;;;;;0.48;86.49;100468.64;103704;280;38509;-71
2023/03/22 01:46:50;;;;;;;36.70;23.10;;;;;;;0.45;86.27;100465.88;103675;280;38963;-70
2023/03/22 01:49:26;;;;;;;32.40;21.40;;;;;;;0.43;86.32;100462.45;103658;280;39456;-70
2023/03/22 01:52:04;;;;;;;37.10;23.50;;;;;;;0.44;86.72;100463.15;103658;280;38398;-73
2023/03/22 01:54:41;;;;;;;36.30;23.40;;;;;;;0.43;86.52;100456.44;103682;280;38422;-72
2023/03/22 01:57:15;;;;;;;34.10;22.90;;;;;;;0.40;86.44;100456.94;103657;280;39413;-72
2023/03/22 01:59:49;;;;;;;32.30;21.10;;;;;;;0.39;86.52;100455.05;103706;280;38278;-69
2023/03/22 02:02:23;;;;;;;34.80;22.00;;;;;;;0.36;86.43;100450.05;103724;280;38780;-71
2023/03/22 02:04:57;;;;;;;33.30;21.90;;;;;;;0.35;86.70;100448.34;103693;280;39066;-73
2023/03/22 02:07:31;;;;;;;33.50;21.70;;;;;;;0.39;86.92;100447.31;103667;280;38840;-71
2023/03/22 02:10:09;;;;;;;34.20;22.50;;;;;;;0.42;86.97;100447.85;103717;280;39553;-68
2023/03/22 02:12:52;;;;;;;35.60;23.30;;;;;;;0.44;87.06;100443.05;103654;280;38589;-69
2023/03/22 02:15:30;;;;;;;36.60;22.50;;;;;;;0.44;86.90;100442.89;103727;280;38230;-73
2023/03/22 02:18:16;;;;;;;35.50;21.20;;;;;;;0.42;86.75;100444.25;103648;280;39687;-73
2023/03/22 02:21:21;;;;;;;35.20;20.80;;;;;;;0.41;86.82;100441.84;103716;280;38793;-71
2023/03/22 02:24:14;;;;;;;33.00;21.10;;;;;;;0.38;86.83;100437.19;103445;280;38679;-69
2023/03/22 02:27:03;;;;;;;35.50;21.90;;;;;;;0.38;86.96;100435.14;103653;280;38918;-73
2023/03/22 02:29:43;;;;;;;35.40;23.20;;;;;;;0.37;86.93;100434.10;103719;280;39417;-71
2023/03/22 02:32:43;;;;;;;32.10;20.60;;;;;;;0.34;86.93;100430.48;103645;280;38542;-71
2023/03/22 02:35:41;;;;;;;34.00;20.90;;;;;;;0.32;86.98;100432.70;103758;280;38544;-73
2023/03/22 02:38:49;;;;;;;32.40;20.30;;;;;;;0.34;87.35;100430.98;103593;280;39716;-73
2023/03/22 02:41:27;;;;;;;33.10;21.20;;;;;;;0.38;87.50;100424.14;103707;280;38463;-69
2023/03/22 02:44:08;;;;;;;33.10;20.70;;;;;;;0.43;88.02;100424.00;103744;280;38460;-72
2023/03/22 02:46:45;;;;;;;32.80;21.20;;;;;;;0.48;88.01;100426.77;103708;280;38282;-73
2023/03/22 02:49:22;;;;;;;33.80;21.00;;;;;;;0.48;87.93;100423.50;103729;280;38567;-71
2023/03/22 02:51:58;;;;;;;34.70;20.90;;;;;;;0.49;88.03;100420.77;103670;280;38520;-71
2023/03/22 02:54:35;;;;;;;34.40;20.50;;;;;;;0.55;87.97;100415.11;103735;276;38833;-71
2023/03/22 02:57:11;;;;;;;34.10;20.80;;;;;;;0.59;88.30;100412.56;103635;280;38490;-71
2023/03/22 02:59:45;;;;;;;31.80;21.50;;;;;;;0.63;88.32;100410.34;103716;280;38798;-71
2023/03/22 03:02:19;;;;;;;31.80;20.90;;;;;;;0.66;88.46;100402.11;103691;280;38569;-73
2023/03/22 03:04:53;;;;;;;33.60;21.00;;;;;;;0.67;88.30;100403.83;103694;280;38274;-69
2023/03/22 03:07:29;;;;;;;29.70;19.70;;;;;;;0.67;88.31;100405.55;103694;280;38903;-71
2023/03/22 03:10:02;;;;;;;30.30;19.80;;;;;;;0.69;88.35;100401.77;103691;280;38236;-71
2023/03/22 03:12:36;;;;;;;31.30;20.40;;;;;;;0.71;88.14;100400.74;103677;280;38274;-72
2023/03/22 03:15:17;;;;;;;33.30;21.10;;;;;;;0.69;87.95;100400.91;103708;280;38866;-73
2023/03/22 03:18:04;;;;;;;33.70;22.20;;;;;;;0.68;87.94;100402.80;103706;280;38613;-73
2023/03/22 03:20:47;;;;;;;35.90;20.20;;;;;;;0.63;87.77;100404.34;103722;280;38935;-71
2023/03/22 03:23:30;;;;;;;30.50;20.40;;;;;;;0.60;87.68;100405.00;103713;280;38272;-71
2023/03/22 03:26:06;;;;;;;32.90;20.70;;;;;;;0.59;87.77;100402.43;103682;269;40441;-71
2023/03/22 03:28:46;;;;;;;35.00;20.20;;;;;;;0.59;87.88;100397.96;103645;280;38615;-73
2023/03/22 03:31:30;;;;;;;31.70;20.20;;;;;;;0.58;87.74;100393.33;103690;280;38659;-74
2023/03/22 03:34:11;;;;;;;32.40;21.60;;;;;;;0.55;87.75;100392.97;103663;281;39958;-69
2023/03/22 03:36:48;;;;;;;34.60;22.00;;;;;;;0.50;87.84;100394.52;103735;280;39616;-71
2023/03/22 03:39:22;;;;;;;33.20;20.00;;;;;;;0.49;88.01;100396.73;103762;280;39666;-73
2023/03/22 03:41:56;;;;;;;35.00;21.00;;;;;;;0.50;88.46;100391.77;103657;280;38227;-73
2023/03/22 03:44:30;;;;;;;33.50;21.20;;;;;;;0.54;88.54;100390.05;103548;281;39655;-72
2023/03/22 03:47:04;;;;;;;32.80;21.60;;;;;;;0.59;89.01;100386.11;103638;280;38432;-69
2023/03/22 03:49:39;;;;;;;34.70;22.20;;;;;;;0.61;89.04;100386.14;103663;280;38696;-74
2023/03/22 03:52:14;;;;;;;35.10;21.10;;;;;;;0.62;89.37;100389.73;103683;280;39462;-71
2023/03/22 03:54:48;;;;;;;30.40;19.30;;;;;;;0.65;89.55;100387.87;103571;280;38347;-72
2023/03/22 03:57:22;;;;;;;28.10;20.00;;;;;;;0.69;89.79;100390.63;103675;280;38243;-68
2023/03/22 03:59:56;;;;;;;31.70;20.00;;;;;;;0.75;89.68;100387.55;103676;280;38464;-71
2023/03/22 04:02:30;;;;;;;32.70;21.60;;;;;;;0.80;89.66;100390.13;103685;280;38547;-71
2023/03/22 04:05:06;;;;;;;33.60;22.20;;;;;;;0.83;89.60;100389.27;103539;280;175836;-71
2023/03/22 04:07:40;;;;;;;30.30;20.50;;;;;;;0.83;89.32;100388.25;103687;280;38828;-70
2023/03/22 04:10:15;;;;;;;32.40;20.40;;;;;;;0.80;89.10;100388.40;103729;269;39712;-71
2023/03/22 04:12:49;;;;;;;29.50;19.40;;;;;;;0.80;88.95;100386.85;103680;280;39422;-71
2023/03/22 04:15:23;;;;;;;29.70;19.20;;;;;;;0.83;89.16;100388.40;103692;280;38515;-70
2023/03/22 04:17:57;;;;;;;33.10;20.70;;;;;;;0.86;89.13;100385.84;103658;280;39440;-71
2023/03/22 04:20:33;;;;;;;35.30;21.00;;;;;;;0.84;89.11;100389.79;103480;281;175820;-70
2023/03/22 04:23:12;;;;;;;33.20;20.00;;;;;;;0.83;89.12;100388.06;103676;280;38625;-69
2023/03/22 04:25:50;;;;;;;29.40;18.90;;;;;;;0.79;88.81;100384.80;103685;280;38470;-73
2023/03/22 04:28:25;;;;;;;31.70;20.50;;;;;;;0.78;88.75;100385.82;103684;280;38248;-73
2023/03/22 04:30:59;;;;;;;32.30;20.60;;;;;;;0.80;89.02;100382.05;103679;280;38619;-70
2023/03/22 04:33:38;;;;;;;30.40;21.00;;;;;;;0.82;89.00;100385.83;103680;280;38340;-71
2023/03/22 04:36:16;;;;;;;29.70;19.80;;;;;;;0.83;89.02;100389.95;103697;280;38521;-72
2023/03/22 04:38:51;;;;;;;31.40;20.30;;;;;;;0.81;89.00;100394.42;103683;280;38524;-75
2023/03/22 04:41:25;;;;;;;29.70;19.40;;;;;;;0.80;88.83;100391.50;103625;280;38240;-72
2023/03/22 04:44:01;;;;;;;28.80;19.40;;;;;;;0.82;89.07;100388.40;103553;280;175877;-72
2023/03/22 04:46:36;;;;;;;29.90;19.90;;;;;;;0.87;89.14;100385.16;103689;280;38452;-72
2023/03/22 04:49:10;;;;;;;29.90;20.30;;;;;;;0.92;89.54;100391.17;103553;280;38593;-72
2023/03/22 04:51:44;;;;;;;34.00;21.20;;;;;;;0.97;89.61;100386.20;103814;279;38283;-71
2023/03/22 04:54:18;;;;;;;33.90;21.30;;;;;;;1.05;90.18;100383.64;103753;279;38638;-72
2023/03/22 04:56:52;;;;;;;29.70;19.10;;;;;;;1.13;90.63;100381.56;103660;280;38243;-71
2023/03/22 04:59:26;;;;;;;27.70;19.10;;;;;;;1.24;91.01;100383.13;103709;280;39429;-70
2023/03/22 05:02:00;;;;;;;29.00;19.80;;;;;;;1.35;91.15;100383.13;103048;280;916590;-71
2023/03/22 05:04:36;;;;;;;30.90;19.50;;;;;;;1.48;91.59;100387.77;103715;280;39267;-72
2023/03/22 05:07:10;;;;;;;28.70;18.60;;;;;;;1.62;92.07;100382.58;103639;280;39476;-70
2023/03/22 05:09:44;;;;;;;30.30;19.60;;;;;;;1.73;91.53;100383.60;103740;280;38509;-73
2023/03/22 05:12:18;;;;;;;31.80;21.50;;;;;;;1.85;92.00;100382.20;103657;280;39374;-73
2023/03/22 05:14:52;;;;;;;29.00;19.90;;;;;;;1.99;92.26;100382.16;103563;280;38306;-72
2023/03/22 05:17:26;;;;;;;30.20;20.30;;;;;;;2.10;92.04;100387.64;103660;280;38958;-72
2023/03/22 05:20:08;;;;;;;27.50;18.90;;;;;;;2.26;92.44;100388.96;103685;280;38533;-69
2023/03/22 05:22:44;;;;;;;26.50;19.40;;;;;;;2.51;93.01;100390.39;103415;282;38504;-72
2023/03/22 05:25:18;;;;;;;25.80;19.50;;;;;;;2.76;93.15;100388.37;103523;282;38438;-74
2023/03/22 05:27:53;;;;;;;30.00;20.50;;;;;;;2.96;93.49;100389.61;103572;281;39953;-76
2023/03/22 05:30:27;;;;;;;30.70;20.70;;;;;;;3.15;93.22;100387.42;103551;281;38317;-73
2023/03/22 05:33:05;;;;;;;29.20;20.00;;;;;;;3.33;93.06;100385.21;103474;282;38842;-75
2023/03/22 05:35:40;;;;;;;26.10;18.80;;;;;;;3.50;93.03;100385.41;103545;281;38387;-70
2023/03/22 05:38:14;;;;;;;26.80;18.10;;;;;;;3.65;92.89;100387.16;103469;281;38654;-71
2023/03/22 05:40:48;;;;;;;24.50;17.90;;;;;;;3.84;93.02;100388.19;103555;281;38471;-72
2023/03/22 05:43:22;;;;;;;25.10;19.00;;;;;;;4.01;92.86;100385.77;103461;282;38874;-74
2023/03/22 05:45:56;;;;;;;26.80;19.20;;;;;;;4.16;92.73;100381.63;103552;281;39172;-73
2023/03/22 05:48:31;;;;;;;24.70;18.30;;;;;;;4.31;92.60;100383.52;103493;282;38547;-75
2023/03/22 05:51:07;;;;;;;24.00;18.10;;;;;;;4.44;92.41;100378.69;103440;281;188958;-72
2023/03/22 05:53:41;;;;;;;24.30;17.40;;;;;;;4.63;92.33;100380.16;103552;282;39907;-71
2023/03/22 05:56:15;;;;;;;23.50;18.10;;;;;;;4.92;92.34;100384.42;103538;281;38279;-72
2023/03/22 05:58:52;;;;;;;23.80;18.50;;;;;;;5.57;93.37;100380.44;103055;281;627836;-71
2023/03/22 06:01:27;;;;;;;25.10;20.00;;;;;;;6.50;95.60;100383.87;103546;282;38280;-74
2023/03/22 06:04:01;;;;;;;22.80;16.80;;;;;;;7.67;96.98;100377.81;103541;281;38819;-74
2023/03/22 06:06:36;;;;;;;21.50;17.10;;;;;;;8.82;94.84;100373.36;103569;281;38512;-73
2023/03/22 06:09:11;;;;;;;21.40;17.10;;;;;;;10.00;92.30;100371.19;103556;281;38231;-73
2023/03/22 06:11:45;;;;;;;20.50;16.60;;;;;;;10.94;84.73;100376.94;102890;281;906644;-75
2023/03/22 06:14:19;;;;;;;20.70;16.10;;;;;;;11.70;80.56;100369.49;103523;282;38249;-73
2023/03/22 06:16:53;;;;;;;20.70;16.50;;;;;;;12.30;77.24;100365.27;103529;281;38356;-75
2023/03/22 06:19:27;;;;;;;20.70;14.90;;;;;;;12.82;75.01;100364.31;103554;281;38397;-71
2023/03/22 06:22:01;;;;;;;17.30;15.10;;;;;;;13.27;73.43;100364.59;103631;280;37959;-71
2023/03/22 06:24:35;;;;;;;15.30;13.30;;;;;;;13.55;68.70;100360.39;103715;280;38920;-75
2023/03/22 06:27:09;;;;;;;15.00;13.30;;;;;;;13.57;66.00;100364.02;103659;280;39473;-75
2023/03/22 06:29:43;;;;;;;15.40;13.50;;;;;;;13.23;65.21;100365.45;103568;269;38796;-74
2023/03/22 06:32:16;;;;;;;16.50;13.80;;;;;;;12.75;64.01;100368.09;103683;280;38641;-73
2023/03/22 06:34:50;;;;;;;17.20;13.70;;;;;;;12.28;63.82;100368.20;103749;280;38457;-73
2023/03/22 06:37:25;;;;;;;17.70;14.60;;;;;;;11.80;63.24;100367.45;103705;280;39521;-73
2023/03/22 06:39:59;;;;;;;14.70;12.30;;;;;;;11.36;63.96;100367.76;103713;280;38682;-72
2023/03/22 06:42:34;;;;;;;15.70;13.30;;;;;;;11.02;64.26;100371.05;103690;280;38326;-74
2023/03/22 06:45:13;;;;;;;14.70;12.70;;;;;;;10.65;64.24;100369.19;103700;280;38394;-74
2023/03/22 06:47:45;;;;;;;;;;;;;;;10.34;64.25;100362.50;103678;280;38275;-74
2023/03/22 06:50:19;;;;;;;16.90;12.80;;;;;;;10.03;64.67;100363.08;103675;280;39423;-75
2023/03/22 06:52:54;;;;;;;17.90;13.20;;;;;;;9.88;65.36;100362.23;103694;280;38413;-75
2023/03/22 06:55:36;;;;;;;16.80;14.10;;;;;;;9.78;65.52;100360.13;103712;280;38488;-72
2023/03/22 06:58:10;;;;;;;17.50;14.40;;;;;;;9.78;66.25;100362.57;103644;280;38266;-73
2023/03/22 07:00:44;;;;;;;15.60;13.70;;;;;;;9.77;65.82;100361.57;103668;280;39569;-73
2023/03/22 07:03:18;;;;;;;17.00;13.40;;;;;;;9.72;66.20;100362.45;103643;280;38841;-74
2023/03/22 07:05:52;;;;;;;15.40;12.50;;;;;;;9.59;65.31;100360.61;103674;280;38887;-72
2023/03/22 07:08:26;;;;;;;16.60;13.10;;;;;;;9.42;65.95;100353.17;103704;280;39971;-75
2023/03/22 07:11:00;;;;;;;16.00;13.40;;;;;;;9.29;66.10;100349.98;103702;280;38723;-73
2023/03/22 07:13:34;;;;;;;15.90;12.90;;;;;;;9.19;66.80;100350.45;103021;280;922734;-75
2023/03/22 07:16:10;;;;;;;17.20;13.50;;;;;;;9.16;67.30;100354.05;103661;280;41134;-75
2023/03/22 07:18:45;;;;;;;15.60;13.20;;;;;;;9.18;67.68;100353.46;103710;280;39245;-75
2023/03/22 07:21:19;;;;;;;15.50;12.00;;;;;;;9.25;68.31;100354.27;103741;280;39479;-72
2023/03/22 07:23:55;;;;;;;15.70;11.70;;;;;;;9.32;68.22;100344.30;103642;280;40255;-72
2023/03/22 07:26:29;;;;;;;14.10;12.00;;;;;;;9.36;68.13;100336.51;103679;280;38724;-73
2023/03/22 07:29:03;;;;;;;14.90;12.30;;;;;;;9.47;68.56;100331.44;103722;269;39644;-72
2023/03/22 07:31:38;;;;;;;18.50;12.60;;;;;;;9.69;68.85;100335.90;103695;280;38255;-73
2023/03/22 07:34:13;;;;;;;15.70;12.80;;;;;;;10.01;68.77;100338.09;103735;280;39627;-74
2023/03/22 07:36:47;;;;;;;16.90;13.10;;;;;;;10.35;68.19;100343.46;103502;281;41511;-75
2023/03/22 07:39:23;;;;;;;16.10;12.60;;;;;;;10.54;68.00;100344.85;103723;281;38739;-75
2023/03/22 07:41:58;;;;;;;16.70;12.90;;;;;;;10.84;68.00;100340.37;103517;281;38432;-75
2023/03/22 07:44:33;;;;;;;18.10;12.90;;;;;;;11.14;67.10;100336.73;103604;281;38448;-73
2023/03/22 07:47:07;;;;;;;16.30;12.70;;;;;;;11.54;67.67;100337.84;103661;281;38227;-73
2023/03/22 07:49:45;;;;;;;15.50;12.90;;;;;;;12.15;67.69;100331.34;103731;281;38275;-73
2023/03/22 07:52:21;;;;;;;13.20;11.90;;;;;;;12.64;65.89;100324.52;103675;280;38258;-71
2023/03/22 07:54:57;;;;;;;15.90;12.80;;;;;;;12.86;63.87;100320.87;103737;280;38389;-74
2023/03/22 07:57:32;;;;;;;14.20;12.10;;;;;;;13.05;64.28;100323.46;103659;278;38262;-74
2023/03/22 08:00:09;;;;;;;14.20;11.90;;;;;;;13.34;62.73;100321.47;103699;280;38248;-71
2023/03/22 08:02:44;;;;;;;15.30;13.20;;;;;;;13.88;63.01;100315.74;103716;280;39645;-73
2023/03/22 08:05:19;;;;;;;13.40;11.80;;;;;;;14.63;61.14;100309.94;103741;280;38382;-74
2023/03/22 08:07:53;;;;;;;14.20;12.30;;;;;;;15.27;58.49;100305.77;103682;281;38484;-74
2023/03/22 08:10:27;;;;;;;14.30;12.70;;;;;;;15.60;56.89;100308.23;103690;281;38282;-75
2023/03/22 08:13:01;;;;;;;14.90;12.30;;;;;;;15.74;55.63;100307.42;103503;280;38387;-75
2023/03/22 08:15:37;;;;;;;14.00;12.30;;;;;;;15.76;55.49;100307.12;103736;281;38357;-74
2023/03/22 08:18:13;;;;;;;13.20;11.70;;;;;;;15.79;54.36;100302.91;103639;280;38244;-73
2023/03/22 08:20:47;;;;;;;15.20;12.90;;;;;;;15.77;55.27;100297.04;103673;280;39440;-75
2023/03/22 08:23:22;;;;;;;14.20;12.60;;;;;;;15.68;54.68;100298.09;103677;280;39669;-73
2023/03/22 08:25:56;;;;;;;12.70;11.20;;;;;;;15.46;55.23;100296.59;103677;280;39462;-74
2023/03/22 08:28:30;;;;;;;15.20;13.10;;;;;;;15.37;55.59;100295.15;103659;280;39441;-74
2023/03/22 08:31:07;;;;;;;13.80;12.40;;;;;;;15.19;54.78;100291.31;103696;280;38509;-74
2023/03/22 08:33:41;;;;;;;14.50;12.60;;;;;;;14.92;54.58;100288.63;103716;280;38246;-72
2023/03/22 08:36:17;;;;;;;13.00;11.70;;;;;;;14.63;54.98;100290.30;103694;280;38637;-75
2023/03/22 08:38:53;;;;;;;14.50;13.00;;;;;;;14.33;55.40;100291.55;103732;280;38763;-74
2023/03/22 08:41:27;;;;;;;14.20;12.70;;;;;;;14.06;55.36;100288.48;103694;280;39450;-74
2023/03/22 08:44:02;;;;;;;15.60;12.20;;;;;;;13.83;56.57;100286.39;103692;280;38871;-74
2023/03/22 08:46:36;;;;;;;16.80;13.30;;;;;;;13.71;56.86;100287.90;103655;280;38438;-75
2023/03/22 08:49:10;;;;;;;16.80;12.60;;;;;;;13.60;57.30;100287.26;103693;280;39318;-74
2023/03/22 08:51:45;;;;;;;14.30;11.80;;;;;;;13.54;57.72;100288.98;103513;281;38388;-74
2023/03/22 08:54:19;;;;;;;14.70;12.50;;;;;;;13.49;58.32;100294.48;103536;280;38242;-74
2023/03/22 08:56:53;;;;;;;14.40;12.80;;;;;;;13.43;58.50;100294.40;103704;280;38279;-74
2023/03/22 08:59:27;;;;;;;14.70;12.90;;;;;;;13.33;58.50;100295.81;103694;280;38273;-75
2023/03/22 09:02:01;;;;;;;14.50;13.00;;;;;;;13.21;58.28;100292.19;103697;280;38571;-75
2023/03/22 09:04:35;;;;;;;13.80;12.30;;;;;;;13.09;58.45;100291.36;103736;280;39228;-73
2023/03/22 09:07:08;;;;;;;16.20;12.50;;;;;;;12.99;59.05;100287.86;103679;280;39645;-75
2023/03/22 09:09:42;;;;;;;15.00;12.70;;;;;;;12.93;59.40;100290.80;103731;280;39464;-75
2023/03/22 09:12:16;;;;;;;15.30;13.20;;;;;;;12.79;59.18;100296.67;103668;280;39441;-74
2023/03/22 09:14:51;;;;;;;14.40;12.70;;;;;;;12.68;59.64;100293.38;103685;280;40018;-74
2023/03/22 09:17:24;;;;;;;14.20;12.20;;;;;;;12.57;59.86;100290.03;103663;280;38384;-73
2023/03/22 09:19:58;;;;;;;13.80;12.00;;;;;;;12.50;60.30;100283.92;103692;280;38541;-74
2023/03/22 09:22:32;;;;;;;14.50;12.60;;;;;;;12.45;60.41;100276.77;103530;270;40529;-74
2023/03/22 09:25:07;;;;;;;13.90;11.60;;;;;;;12.41;60.61;100271.04;103551;281;38278;-73
2023/03/22 09:27:41;;;;;;;14.40;11.80;;;;;;;12.37;60.90;100266.34;103547;281;38789;-73
2023/03/22 09:30:16;;;;;;;13.00;11.60;;;;;;;12.40;61.16;100266.02;103499;281;39403;-74
2023/03/22 09:32:50;;;;;;;13.60;12.00;;;;;;;12.51;61.42;100267.61;103526;281;38683;-72
2023/03/22 09:35:24;;;;;;;15.00;12.70;;;;;;;12.63;61.46;100268.06;103527;282;38417;-73
2023/03/22 09:37:59;;;;;;;15.00;13.20;;;;;;;12.70;61.03;100264.21;103555;281;38257;-73
2023/03/22 09:40:35;;;;;;;13.70;11.60;;;;;;;12.69;61.11;100260.40;103539;281;38563;-74
2023/03/22 09:43:10;;;;;;;13.90;12.30;;;;;;;12.64;60.79;100251.92;103518;281;39661;-73
2023/03/22 09:45:46;;;;;;;16.30;12.70;;;;;;;12.65;61.05;100249.24;103538;281;39405;-73
2023/03/22 09:48:24;;;;;;;14.00;12.40;;;;;;;12.68;61.04;100241.77;103532;281;39903;-75
2023/03/22 09:50:58;;;;;;;13.00;11.30;;;;;;;12.70;60.93;100240.61;103465;281;175148;-73
2023/03/22 09:53:33;;;;;;;14.30;12.00;;;;;;;12.68;60.88;100239.84;103532;282;38163;-73
2023/03/22 09:56:14;;;;;;;15.00;12.60;;;;;;;12.66;61.00;100242.20;103589;281;38400;-71
2023/03/22 09:58:51;;;;;;;15.30;12.40;;;;;;;12.64;61.06;100251.90;103554;281;38395;-74
2023/03/22 10:01:33;;;;;;;15.70;13.20;;;;;;;12.63;61.17;100250.90;103509;281;38544;-75
2023/03/22 10:04:35;;;;;;;16.40;12.70;;;;;;;12.62;60.90;100247.97;103551;281;38529;-75
2023/03/22 10:07:15;;;;;;;13.50;11.40;;;;;;;12.58;61.01;100253.27;103498;281;38787;-75
2023/03/22 10:09:55;;;;;;;15.40;12.30;;;;;;;12.53;60.49;100250.52;103537;281;38265;-73
2023/03/22 10:12:30;;;;;;;14.60;12.30;;;;;;;12.42;60.60;100249.61;103492;281;38656;-72
2023/03/22 10:15:09;;;;;;;12.90;11.30;;;;;;;12.37;60.74;100254.08;103555;281;39667;-72
2023/03/22 10:17:45;;;;;;;14.80;11.90;;;;;;;12.36;61.35;100249.90;103561;281;39131;-73
2023/03/22 10:20:29;;;;;;;15.00;12.20;;;;;;;12.34;61.09;100246.86;103566;281;38343;-72
2023/03/22 10:23:05;;;;;;;13.90;12.20;;;;;;;12.36;61.46;100245.39;103665;280;38505;-72
2023/03/22 10:25:40;;;;;;;15.20;12.70;;;;;;;12.37;61.38;100240.10;103717;280;39487;-72
2023/03/22 10:28:21;;;;;;;14.50;12.30;;;;;;;12.35;61.46;100240.34;103574;280;172063;-71
2023/03/22 10:30:56;;;;;;;13.80;12.20;;;;;;;12.35;61.57;100243.15;103734;280;38806;-73
2023/03/22 10:33:40;;;;;;;13.90;11.90;;;;;;;12.35;61.63;100245.77;103704;280;38832;-72
2023/03/22 10:36:17;;;;;;;15.70;12.20;;;;;;;12.32;61.53;100242.76;103541;281;38495;-75
2023/03/22 10:38:53;;;;;;;16.80;12.30;;;;;;;12.34;61.55;100238.80;103665;280;38847;-74
2023/03/22 10:41:27;;;;;;;14.30;12.10;;;;;;;12.44;61.83;100240.10;103695;280;38705;-73
2023/03/22 10:44:02;;;;;;;12.80;11.30;;;;;;;12.60;62.12;100236.33;103681;280;38318;-72
2023/03/22 10:46:38;;;;;;;15.60;11.90;;;;;;;12.74;61.35;100237.23;103648;280;38714;-74
2023/03/22 10:49:16;;;;;;;14.80;11.80;;;;;;;12.79;60.25;100235.27;103707;280;38380;-73
2023/03/22 10:51:52;;;;;;;13.20;11.00;;;;;;;12.75;60.43;100230.18;103678;280;38589;-75
2023/03/22 10:54:26;;;;;;;12.00;10.80;;;;;;;12.80;60.96;100227.65;103558;280;175120;-74
2023/03/22 10:57:00;;;;;;;14.40;11.60;;;;;;;12.87;60.93;100222.39;103660;280;38257;-75
2023/03/22 10:59:49;;;;;;;13.70;11.30;;;;;;;12.95;61.17;100220.80;103688;280;38574;-75
2023/03/22 11:02:26;;;;;;;13.70;11.20;;;;;;;13.04;61.11;100219.48;103725;280;38301;-75
2023/03/22 11:05:02;;;;;;;13.60;11.50;;;;;;;13.09;60.12;100216.41;103542;280;39680;-75
2023/03/22 11:07:39;;;;;;;13.60;11.10;;;;;;;13.04;59.39;100214.55;103679;280;38394;-74
2023/03/22 11:10:27;;;;;;;12.80;10.60;;;;;;;13.01;59.30;100218.36;103690;280;38250;-75
2023/03/22 11:13:17;;;;;;;11.70;10.40;;;;;;;12.98;59.40;100213.33;103685;280;38235;-71
2023/03/22 11:15:58;;;;;;;13.80;11.60;;;;;;;12.95;59.52;100212.21;103692;280;38235;-73
2023/03/22 11:18:34;;;;;;;13.50;11.40;;;;;;;12.94;59.54;100209.30;103650;280;38693;-72
2023/03/22 11:21:13;;;;;;;13.50;11.80;;;;;;;12.95;59.82;100208.04;103707;280;38249;-73
2023/03/22 11:23:54;;;;;;;15.10;12.50;;;;;;;12.92;59.59;100205.02;103594;280;40293;-72
2023/03/22 11:26:34;;;;;;;14.90;12.10;;;;;;;12.94;59.71;100204.71;103656;280;38893;-72
2023/03/22 11:29:16;;;;;;;13.70;12.20;;;;;;;12.97;59.92;100208.27;103545;281;38285;-73
2023/03/22 11:31:59;;;;;;;14.80;12.10;;;;;;;13.03;59.99;100202.36;103664;280;38704;-74
2023/03/22 11:34:35;;;;;;;15.10;11.80;;;;;;;13.10;60.02;100197.44;103557;281;39836;-73
2023/03/22 11:37:11;;;;;;;14.10;12.20;;;;;;;13.14;59.88;100193.90;103669;280;38394;-73
2023/03/22 11:39:49;;;;;;;16.50;11.80;;;;;;;13.12;59.67;100192.10;103688;280;39944;-75
2023/03/22 11:42:23;;;;;;;14.60;12.20;;;;;;;13.10;59.81;100193.41;103705;280;38744;-74
2023/03/22 11:44:58;;;;;;;15.60;12.60;;;;;;;13.08;59.93;100190.02;103687;280;38771;-73
2023/03/22 11:47:33;;;;;;;14.00;12.10;;;;;;;13.08;60.01;100185.14;103686;280;39411;-72
2023/03/22 11:50:19;;;;;;;14.40;12.20;;;;;;;13.07;59.76;100181.31;103692;280;39445;-73
2023/03/22 11:52:55;;;;;;;13.30;11.60;;;;;;;13.04;59.49;100179.92;103697;280;39424;-72
2023/03/22 11:55:30;;;;;;;13.30;11.10;;;;;;;13.02;59.68;100171.05;103702;280;38249;-72